Time;durP1;ratioP1;P1;durP2;ratioP2;P2;SDS_P1;SDS_P2;PMS_P1;PMS_P2;Temp;Humidity;BMP_temperature;BMP_pressure;BME280_temperature;BME280_humidity;BME280_pressure;Samples;Min_cycle;Max_cycle;Signal;HPM_P1;HPM_P2
2023/09/15 00:02:04;;;;;;;4.90;2.10;;;;;;;9.58;100.00;102237.09;7395607;19;20424;-41
2023/09/15 00:04:34;;;;;;;5.90;2.30;;;;;;;9.59;100.00;102242.38;7394409;19;20399;-40
2023/09/15 00:07:07;;;;;;;5.77;2.67;;;;;;;9.60;100.00;102243.28;7396425;19;20412;-40
2023/09/15 00:09:37;;;;;;;7.80;2.30;;;;;;;9.57;100.00;102236.22;7397133;19;20564;-40
2023/09/15 00:12:07;;;;;;;4.60;2.07;;;;;;;9.55;100.00;102240.34;7396709;19;20421;-41
2023/09/15 00:14:38;;;;;;;7.90;2.50;;;;;;;9.51;100.00;102230.63;7393756;19;20399;-40
2023/09/15 00:17:07;;;;;;;5.27;2.90;;;;;;;9.49;100.00;102228.75;7393535;19;20482;-42
2023/09/15 00:19:40;;;;;;;4.03;2.13;;;;;;;9.42;100.00;102228.31;7393749;19;20520;-41
2023/09/15 00:22:12;;;;;;;5.03;2.30;;;;;;;9.35;100.00;102230.34;7396248;19;20844;-41
2023/09/15 00:24:42;;;;;;;4.00;2.10;;;;;;;9.35;100.00;102222.63;7395365;19;20821;-41
2023/09/15 00:27:12;;;;;;;6.27;2.70;;;;;;;9.37;100.00;102223.59;7394441;19;20755;-41
2023/09/15 00:29:42;;;;;;;6.10;2.57;;;;;;;9.39;100.00;102222.06;7393654;19;20506;-42
2023/09/15 00:32:11;;;;;;;4.73;2.50;;;;;;;9.37;100.00;102221.03;7393658;19;20408;-40
2023/09/15 00:34:41;;;;;;;3.73;2.20;;;;;;;9.41;100.00;102221.38;7388410;19;20410;-42
2023/09/15 00:37:13;;;;;;;7.60;3.07;;;;;;;9.46;100.00;102219.13;7395701;19;20414;-41
2023/09/15 00:39:43;;;;;;;5.57;2.93;;;;;;;9.52;100.00;102214.38;7394866;19;20804;-41
2023/09/15 00:42:13;;;;;;;4.63;2.57;;;;;;;9.52;100.00;102203.16;7397397;19;20404;-40
2023/09/15 00:44:42;;;;;;;5.83;3.10;;;;;;;9.50;100.00;102200.50;7392120;19;20412;-40
2023/09/15 00:47:12;;;;;;;8.43;3.13;;;;;;;9.51;100.00;102194.56;7394431;19;20415;-40
2023/09/15 00:49:41;;;;;;;8.00;3.53;;;;;;;9.62;100.00;102187.56;7394351;19;20458;-40
2023/09/15 00:52:15;;;;;;;5.70;3.27;;;;;;;9.59;100.00;102193.41;7395568;19;20408;-41
2023/09/15 00:54:44;;;;;;;7.73;3.23;;;;;;;9.24;100.00;102186.72;7396181;19;20406;-41
2023/09/15 00:57:14;;;;;;;6.97;3.53;;;;;;;9.51;100.00;102176.53;7394719;19;20424;-41
2023/09/15 00:59:44;;;;;;;7.23;3.60;;;;;;;9.56;100.00;102166.53;7392142;19;20431;-41
2023/09/15 01:02:14;;;;;;;6.60;2.87;;;;;;;9.59;100.00;102171.91;7394544;19;20416;-40
2023/09/15 01:04:44;;;;;;;6.20;2.73;;;;;;;9.66;100.00;102163.81;7393847;19;20407;-41
2023/09/15 01:07:16;;;;;;;6.20;3.27;;;;;;;9.49;100.00;102160.06;7394919;19;20426;-40
2023/09/15 01:09:45;;;;;;;6.60;2.70;;;;;;;9.54;100.00;102158.69;7393920;19;20481;-40
2023/09/15 01:12:15;;;;;;;4.90;2.60;;;;;;;9.34;100.00;102165.06;7393617;19;20404;-40
2023/09/15 01:14:45;;;;;;;5.63;2.20;;;;;;;9.50;100.00;102155.81;7391681;19;20487;-40
2023/09/15 01:17:19;;;;;;;6.57;2.33;;;;;;;9.47;100.00;102156.50;7389898;19;20428;-40
2023/09/15 01:20:00;;;;;;;7.90;3.10;;;;;;;9.39;100.00;102162.81;7394461;19;20450;-40
2023/09/15 01:22:55;;;;;;;4.03;2.30;;;;;;;9.48;100.00;102154.81;7395740;19;20475;-41
2023/09/15 01:25:38;;;;;;;11.70;3.70;;;;;;;9.43;100.00;102165.69;7393833;19;20403;-40
2023/09/15 01:28:22;;;;;;;4.10;2.20;;;;;;;9.31;100.00;102160.59;7395251;19;20939;-40
2023/09/15 01:30:55;;;;;;;5.30;2.77;;;;;;;9.54;100.00;102153.53;7394309;19;20499;-40
2023/09/15 01:33:25;;;;;;;4.80;2.63;;;;;;;9.51;100.00;102155.91;7393572;19;20404;-40
2023/09/15 01:35:54;;;;;;;7.10;4.33;;;;;;;9.62;100.00;102156.66;7394755;19;20407;-40
2023/09/15 01:38:25;;;;;;;7.27;3.63;;;;;;;9.37;100.00;102169.50;7395055;19;21071;-40
2023/09/15 01:40:54;;;;;;;6.50;2.73;;;;;;;9.30;100.00;102163.06;7394424;19;20542;-40
2023/09/15 01:43:24;;;;;;;8.03;3.00;;;;;;;9.51;100.00;102168.81;7393383;19;20407;-40
2023/09/15 01:45:56;;;;;;;9.03;3.50;;;;;;;9.61;100.00;102166.84;7394430;19;20399;-40
2023/09/15 01:48:26;;;;;;;5.70;2.80;;;;;;;9.56;100.00;102167.44;7393386;19;20403;-40
2023/09/15 01:50:58;;;;;;;5.10;2.27;;;;;;;9.50;100.00;102181.56;7394037;19;20806;-40
2023/09/15 01:53:28;;;;;;;3.87;2.03;;;;;;;9.56;100.00;102187.16;7392871;19;20754;-40
2023/09/15 01:55:58;;;;;;;8.60;2.40;;;;;;;9.36;100.00;102189.25;7394383;19;20416;-40
2023/09/15 01:58:27;;;;;;;5.43;2.43;;;;;;;9.46;100.00;102185.63;7392840;19;20968;-41
2023/09/15 02:01:00;;;;;;;5.03;2.40;;;;;;;9.40;100.00;102187.78;7393801;19;20514;-41
2023/09/15 02:03:29;;;;;;;4.10;2.20;;;;;;;9.52;100.00;102186.03;7392457;19;20399;-42
2023/09/15 02:06:04;;;;;;;4.43;2.43;;;;;;;9.60;100.00;102173.69;7393595;19;20955;-40
2023/09/15 02:08:33;;;;;;;6.00;2.50;;;;;;;9.35;100.00;102192.63;7394502;19;20403;-41
2023/09/15 02:11:03;;;;;;;5.07;2.40;;;;;;;9.31;100.00;102190.59;7394067;19;20424;-40
2023/09/15 02:13:35;;;;;;;5.97;2.70;;;;;;;9.57;100.00;102176.94;7391938;19;20971;-41
2023/09/15 02:16:08;;;;;;;3.87;2.17;;;;;;;9.56;100.00;102188.06;7393766;19;20425;-40
2023/09/15 02:18:37;;;;;;;5.10;2.63;;;;;;;9.57;100.00;102189.84;7392841;19;20403;-41
2023/09/15 02:21:07;;;;;;;5.00;2.90;;;;;;;9.34;100.00;102195.97;7393490;19;20467;-40
2023/09/15 02:23:36;;;;;;;5.17;2.07;;;;;;;9.12;100.00;102196.16;7391877;19;20408;-41
2023/09/15 02:26:08;;;;;;;9.30;3.13;;;;;;;9.05;100.00;102198.28;7393803;19;20815;-41
2023/09/15 02:28:38;;;;;;;3.90;2.30;;;;;;;9.08;100.00;102196.72;7392287;19;20471;-41
2023/09/15 02:31:10;;;;;;;4.27;2.30;;;;;;;9.02;100.00;102198.06;7393739;19;20425;-41
2023/09/15 02:33:40;;;;;;;4.90;2.93;;;;;;;9.19;100.00;102186.38;7393969;19;20428;-41
2023/09/15 02:36:09;;;;;;;5.83;2.30;;;;;;;9.47;100.00;102176.22;7392879;19;20471;-40
2023/09/15 02:38:39;;;;;;;8.00;3.00;;;;;;;9.34;100.00;102174.47;7393806;19;20402;-40
2023/09/15 02:41:08;;;;;;;6.87;2.27;;;;;;;9.12;100.00;102178.13;7393081;19;20480;-41
2023/09/15 02:43:38;;;;;;;8.40;2.00;;;;;;;8.94;100.00;102190.56;7391613;19;20411;-41
2023/09/15 02:46:11;;;;;;;4.87;2.07;;;;;;;9.02;100.00;102177.47;7395067;19;20432;-41
2023/09/15 02:48:42;;;;;;;3.10;2.00;;;;;;;9.13;100.00;102174.75;7392157;19;20407;-40
2023/09/15 02:51:11;;;;;;;5.83;3.30;;;;;;;9.00;100.00;102179.03;7397881;19;20470;-41
2023/09/15 02:53:41;;;;;;;4.27;2.13;;;;;;;9.14;100.00;102171.41;7398331;19;20407;-41
2023/09/15 02:56:10;;;;;;;3.17;2.10;;;;;;;9.08;100.00;102163.25;7402048;19;20407;-40
2023/09/15 02:58:40;;;;;;;5.00;2.47;;;;;;;8.93;100.00;102161.38;7397914;19;20966;-41
2023/09/15 03:01:16;;;;;;;6.30;2.27;;;;;;;8.76;100.00;102158.50;7399189;19;20471;-40
2023/09/15 03:03:47;;;;;;;5.83;2.60;;;;;;;8.81;100.00;102153.66;7397692;19;20403;-40
2023/09/15 03:06:17;;;;;;;153.07;61.73;;;;;;;8.81;100.00;102142.50;7399078;19;20432;-40
2023/09/15 03:08:46;;;;;;;53.90;24.53;;;;;;;8.99;100.00;102124.88;7397732;19;20834;-42
2023/09/15 03:11:17;;;;;;;94.27;40.73;;;;;;;8.96;100.00;102125.53;7399134;19;20765;-41
2023/09/15 03:13:46;;;;;;;16.07;7.30;;;;;;;8.98;100.00;102111.09;7397752;19;20403;-41
2023/09/15 03:16:19;;;;;;;11.70;4.67;;;;;;;9.03;100.00;102109.72;7401598;19;20806;-40
2023/09/15 03:18:49;;;;;;;49.23;27.67;;;;;;;9.31;100.00;102103.03;7397419;19;20483;-40
2023/09/15 03:21:19;;;;;;;16.00;7.37;;;;;;;9.57;100.00;102102.22;7401239;19;20395;-40
2023/09/15 03:23:49;;;;;;;30.50;14.80;;;;;;;9.31;100.00;102103.94;7397409;19;20403;-40
2023/09/15 03:26:19;;;;;;;34.73;18.27;;;;;;;9.64;100.00;102097.50;7399240;19;20411;-40
2023/09/15 03:28:48;;;;;;;29.93;15.43;;;;;;;9.97;100.00;102103.09;7397239;19;20487;-40
2023/09/15 03:31:21;;;;;;;21.00;11.00;;;;;;;9.87;100.00;102109.31;7398739;19;20497;-40
2023/09/15 03:33:50;;;;;;;17.50;7.70;;;;;;;9.69;100.00;102121.88;7397568;19;20490;-40
2023/09/15 03:36:21;;;;;;;11.70;6.20;;;;;;;9.95;100.00;102121.03;7396967;19;20939;-40
2023/09/15 03:38:50;;;;;;;14.20;4.53;;;;;;;9.72;100.00;102142.69;7399774;19;20487;-40
2023/09/15 03:41:20;;;;;;;8.47;3.10;;;;;;;9.47;100.00;102153.91;7396140;19;20971;-40
2023/09/15 03:43:50;;;;;;;5.63;2.60;;;;;;;9.34;100.00;102164.16;7396892;19;20407;-40
2023/09/15 03:46:22;;;;;;;9.93;2.60;;;;;;;9.28;100.00;102175.81;7401101;19;20418;-40
2023/09/15 03:48:51;;;;;;;5.20;2.47;;;;;;;9.08;100.00;102176.13;7399928;19;20399;-41
2023/09/15 03:51:22;;;;;;;8.90;2.87;;;;;;;9.09;100.00;102170.16;7396187;19;20975;-40
2023/09/15 03:53:52;;;;;;;8.40;2.83;;;;;;;9.00;100.00;102175.56;7399345;19;20765;-40
2023/09/15 03:56:21;;;;;;;13.83;3.33;;;;;;;8.86;100.00;102169.44;7396173;19;20403;-40
2023/09/15 03:58:51;;;;;;;4.87;2.37;;;;;;;8.83;100.00;102174.38;7397205;19;20952;-39
2023/09/15 04:01:23;;;;;;;8.13;2.67;;;;;;;8.83;100.00;102164.97;7393832;19;20407;-40
2023/09/15 04:03:54;;;;;;;6.47;3.07;;;;;;;8.94;100.00;102160.59;7399369;19;20395;-40
2023/09/15 04:06:23;;;;;;;7.63;2.53;;;;;;;8.90;100.00;102151.75;7397232;19;20407;-41
2023/09/15 04:08:53;;;;;;;7.70;2.87;;;;;;;8.89;100.00;102151.63;7397267;19;20408;-41
2023/09/15 04:11:23;;;;;;;8.07;2.73;;;;;;;8.83;100.00;102140.91;7395924;19;20770;-40
2023/09/15 04:13:52;;;;;;;4.93;2.63;;;;;;;8.72;100.00;102140.16;7396430;19;20404;-40
2023/09/15 04:16:24;;;;;;;5.77;2.67;;;;;;;8.63;100.00;102136.13;7395714;19;20415;-42
2023/09/15 04:18:54;;;;;;;6.17;2.80;;;;;;;8.80;100.00;102132.94;7396305;19;20406;-40
2023/09/15 04:21:24;;;;;;;6.47;3.00;;;;;;;8.74;100.00;102126.63;7395047;19;20420;-39
2023/09/15 04:23:54;;;;;;;9.60;2.70;;;;;;;8.70;100.00;102127.16;7393418;19;20948;-42
2023/09/15 04:26:24;;;;;;;4.77;2.93;;;;;;;8.61;100.00;102126.53;7393381;19;20478;-40
2023/09/15 04:28:53;;;;;;;6.73;3.37;;;;;;;8.57;100.00;102124.50;7393871;19;20404;-40
2023/09/15 04:31:26;;;;;;;5.20;2.97;;;;;;;8.51;100.00;102117.19;7392837;19;20432;-40
2023/09/15 04:33:56;;;;;;;4.33;2.60;;;;;;;8.50;100.00;102113.75;7393437;19;20412;-40
2023/09/15 04:36:26;;;;;;;6.50;3.00;;;;;;;8.58;100.00;102109.19;7387268;19;20482;-40
2023/09/15 04:38:55;;;;;;;8.53;3.10;;;;;;;8.63;100.00;102107.81;7393988;19;20408;-40
2023/09/15 04:41:26;;;;;;;5.20;2.60;;;;;;;8.59;100.00;102098.09;7392544;19;20491;-40
2023/09/15 04:43:56;;;;;;;4.17;2.50;;;;;;;8.67;100.00;102093.47;7393410;19;20477;-40
2023/09/15 04:46:29;;;;;;;8.67;2.87;;;;;;;8.57;100.00;102101.34;7392716;19;20756;-40
2023/09/15 04:48:58;;;;;;;5.73;2.90;;;;;;;8.60;100.00;102093.84;7395333;19;20824;-40
2023/09/15 04:51:28;;;;;;;8.50;3.60;;;;;;;8.71;100.00;102092.06;7392439;19;20396;-40
2023/09/15 04:53:58;;;;;;;5.97;2.93;;;;;;;8.75;100.00;102094.03;7392655;19;20487;-40
2023/09/15 04:56:27;;;;;;;7.20;3.20;;;;;;;8.80;100.00;102089.19;7392370;19;20428;-40
2023/09/15 04:58:57;;;;;;;5.37;2.77;;;;;;;8.70;100.00;102100.53;7393162;19;20780;-39
2023/09/15 05:01:29;;;;;;;4.00;2.47;;;;;;;8.71;100.00;102087.78;7392132;19;20408;-40
2023/09/15 05:03:59;;;;;;;4.47;2.87;;;;;;;8.85;100.00;102093.00;7392504;19;20414;-40
2023/09/15 05:06:29;;;;;;;7.53;2.83;;;;;;;8.84;100.00;102092.13;7391737;19;20781;-40
2023/09/15 05:08:58;;;;;;;8.27;3.77;;;;;;;8.98;100.00;102092.19;7392874;19;20506;-40
2023/09/15 05:11:28;;;;;;;5.27;3.07;;;;;;;9.11;100.00;102088.78;7391811;19;20408;-40
2023/09/15 05:13:57;;;;;;;4.87;3.13;;;;;;;9.09;100.00;102090.34;7390881;19;21079;-40
2023/09/15 05:16:30;;;;;;;8.30;3.17;;;;;;;9.00;100.00;102100.91;7391418;19;20404;-40
2023/09/15 05:19:00;;;;;;;8.30;3.40;;;;;;;9.16;100.00;102088.31;7254270;19;2738906;-41
2023/09/15 05:21:29;;;;;;;4.77;2.87;;;;;;;9.22;100.00;102092.09;7393967;19;20147;-40
2023/09/15 05:23:59;;;;;;;4.10;2.40;;;;;;;9.13;100.00;102102.66;7394389;19;20408;-40
2023/09/15 05:26:28;;;;;;;6.17;2.60;;;;;;;9.18;100.00;102101.31;7394020;19;20471;-40
2023/09/15 05:28:58;;;;;;;4.70;2.53;;;;;;;9.14;100.00;102114.75;7394851;19;20440;-41
2023/09/15 05:31:30;;;;;;;5.70;2.67;;;;;;;9.16;100.00;102108.91;7393513;19;20403;-40
2023/09/15 05:34:00;;;;;;;6.07;2.90;;;;;;;9.09;100.00;102105.81;7395985;19;20407;-40
2023/09/15 05:36:30;;;;;;;5.63;3.00;;;;;;;9.25;100.00;102107.75;7388499;19;20887;-40
2023/09/15 05:39:00;;;;;;;5.17;2.90;;;;;;;9.11;100.00;102114.50;7391857;19;20431;-41
2023/09/15 05:41:30;;;;;;;4.47;2.70;;;;;;;9.15;100.00;102116.53;7388627;19;20462;-42
2023/09/15 05:43:59;;;;;;;6.93;3.07;;;;;;;9.13;100.00;102118.13;7392885;19;20413;-40
2023/09/15 05:46:32;;;;;;;4.50;3.00;;;;;;;9.05;100.00;102115.91;7393739;19;20407;-40
2023/09/15 05:49:02;;;;;;;6.00;3.00;;;;;;;9.16;100.00;102119.22;7394144;19;20503;-39
2023/09/15 05:51:32;;;;;;;4.10;2.80;;;;;;;9.05;100.00;102121.06;7304822;19;20471;-40
2023/09/15 05:54:02;;;;;;;5.97;3.20;;;;;;;9.07;100.00;102113.41;7392762;19;20524;-40
2023/09/15 05:56:32;;;;;;;5.00;2.63;;;;;;;8.87;100.00;102124.91;7364886;19;20428;-39
2023/09/15 05:59:01;;;;;;;6.70;3.40;;;;;;;9.08;100.00;102119.47;7392492;19;21110;-40
2023/09/15 06:01:33;;;;;;;5.07;3.10;;;;;;;9.25;100.00;102111.25;7366927;19;20426;-42
2023/09/15 06:04:05;;;;;;;7.30;3.67;;;;;;;9.20;100.00;102107.44;7392305;19;20407;-40
2023/09/15 06:06:35;;;;;;;7.57;2.90;;;;;;;9.34;100.00;102107.50;7369223;19;20502;-40
2023/09/15 06:09:04;;;;;;;12.17;3.70;;;;;;;9.39;100.00;102108.72;7392584;19;20448;-39
2023/09/15 06:11:34;;;;;;;6.33;3.10;;;;;;;9.45;100.00;102106.56;7369421;19;20452;-39
2023/09/15 06:14:03;;;;;;;6.80;3.43;;;;;;;9.43;100.00;102109.00;7391842;19;20424;-40
2023/09/15 06:16:36;;;;;;;5.70;3.30;;;;;;;9.41;100.00;102108.03;7368540;19;20444;-40
2023/09/15 06:19:06;;;;;;;8.03;3.10;;;;;;;9.50;100.00;102104.28;7392430;19;20425;-39
2023/09/15 06:21:36;;;;;;;10.47;3.40;;;;;;;9.56;100.00;102105.59;7367948;19;20861;-40
2023/09/15 06:24:06;;;;;;;7.83;3.87;;;;;;;9.66;100.00;102109.69;7390577;19;20432;-39
2023/09/15 06:26:37;;;;;;;8.60;3.37;;;;;;;9.75;100.00;102108.50;7367099;19;20423;-39
2023/09/15 06:29:08;;;;;;;48.87;27.83;;;;;;;10.05;100.00;102096.75;7392797;19;20447;-41
2023/09/15 06:31:40;;;;;;;8.93;4.97;;;;;;;10.19;100.00;102104.47;7367404;19;20423;-39
2023/09/15 06:34:10;;;;;;;25.00;12.90;;;;;;;10.59;100.00;102094.19;7393510;19;20399;-39
2023/09/15 06:36:39;;;;;;;69.97;36.97;;;;;;;10.84;100.00;102100.88;7367085;19;20431;-40
2023/09/15 06:39:09;;;;;;;61.10;27.97;;;;;;;11.02;100.00;102102.81;7391683;19;20494;-40
2023/09/15 06:41:39;;;;;;;10.27;5.87;;;;;;;10.87;100.00;102113.97;7367403;19;20495;-39
2023/09/15 06:44:08;;;;;;;11.57;6.73;;;;;;;11.13;100.00;102126.72;7391096;19;20399;-40
2023/09/15 06:46:41;;;;;;;9.30;5.37;;;;;;;10.81;100.00;102139.41;7364540;19;20415;-41
2023/09/15 06:49:12;;;;;;;8.03;3.47;;;;;;;10.63;100.00;102155.53;7391043;19;20967;-40
2023/09/15 06:51:42;;;;;;;11.60;5.80;;;;;;;10.80;100.00;102153.09;7366065;19;20427;-40
2023/09/15 06:54:12;;;;;;;15.33;6.30;;;;;;;10.84;100.00;102155.09;7391385;19;20440;-39
2023/09/15 06:56:41;;;;;;;10.10;4.37;;;;;;;10.97;100.00;102155.88;7366608;19;20473;-40
2023/09/15 06:59:11;;;;;;;11.30;5.23;;;;;;;11.14;100.00;102160.41;7391236;19;20423;-40
2023/09/15 07:01:43;;;;;;;7.70;4.43;;;;;;;11.02;100.00;102170.84;7367513;19;20790;-41
2023/09/15 07:04:16;;;;;;;9.27;4.20;;;;;;;11.05;100.00;102175.31;7390834;19;20966;-40
2023/09/15 07:06:46;;;;;;;13.40;6.83;;;;;;;11.14;100.00;102173.31;7363945;19;20423;-41
2023/09/15 07:09:16;;;;;;;8.20;4.53;;;;;;;11.20;100.00;102178.88;7385558;19;20431;-40
2023/09/15 07:11:45;;;;;;;9.33;3.53;;;;;;;11.15;100.00;102180.25;7362860;19;20971;-40
2023/09/15 07:14:15;;;;;;;6.60;3.60;;;;;;;11.41;100.00;102165.47;7386709;19;20412;-39
2023/09/15 07:16:48;;;;;;;6.93;3.93;;;;;;;11.42;100.00;102177.59;7362943;19;20894;-40
2023/09/15 07:19:18;;;;;;;5.93;3.20;;;;;;;11.51;100.00;102169.50;7387870;19;20427;-40
2023/09/15 07:21:48;;;;;;;7.93;4.00;;;;;;;11.56;100.00;102167.19;7363418;19;20487;-40
2023/09/15 07:24:17;;;;;;;6.70;3.93;;;;;;;11.71;100.00;102175.88;7388573;19;20904;-41
2023/09/15 07:26:47;;;;;;;5.90;3.50;;;;;;;11.76;100.00;102178.72;7362737;19;20502;-40
2023/09/15 07:29:17;;;;;;;6.50;3.30;;;;;;;11.80;100.00;102184.97;7387703;19;20423;-40
2023/09/15 07:31:49;;;;;;;8.43;4.17;;;;;;;12.04;100.00;102184.69;7363007;19;20510;-40
2023/09/15 07:34:21;;;;;;;7.63;3.87;;;;;;;12.04;100.00;102200.19;7387167;19;20407;-40
2023/09/15 07:36:51;;;;;;;6.30;3.30;;;;;;;12.17;100.00;102212.13;7367745;19;20475;-39
2023/09/15 07:39:21;;;;;;;5.07;3.30;;;;;;;12.25;100.00;102222.13;7394430;19;20466;-39
2023/09/15 07:41:50;;;;;;;7.23;3.50;;;;;;;12.35;100.00;102233.03;7369421;19;20513;-39
2023/09/15 07:44:20;;;;;;;5.10;2.80;;;;;;;12.42;100.00;102235.19;7392426;19;21083;-39
2023/09/15 07:46:52;;;;;;;7.03;2.93;;;;;;;12.47;100.00;102254.47;7368924;19;20415;-40
2023/09/15 07:49:23;;;;;;;7.33;3.70;;;;;;;12.63;100.00;102263.09;7396363;19;20871;-44
2023/09/15 07:51:52;;;;;;;4.70;2.50;;;;;;;12.71;100.00;102267.00;7370241;19;20503;-40
2023/09/15 07:54:22;;;;;;;8.40;3.30;;;;;;;12.80;100.00;102274.41;7394180;19;20775;-40
2023/09/15 07:56:52;;;;;;;4.20;2.57;;;;;;;12.88;100.00;102278.34;7370011;19;20490;-40
2023/09/15 07:59:21;;;;;;;8.03;2.83;;;;;;;13.01;100.00;102300.63;7393769;19;20451;-39
2023/09/15 08:01:54;;;;;;;4.90;2.33;;;;;;;13.09;100.00;102309.72;7372542;19;20781;-41
2023/09/15 08:04:23;;;;;;;6.23;2.30;;;;;;;13.18;100.00;102330.09;7394179;19;20434;-40
2023/09/15 08:06:54;;;;;;;4.80;2.63;;;;;;;13.28;100.00;102352.22;7372879;19;20419;-39
2023/09/15 08:09:24;;;;;;;6.37;3.33;;;;;;;13.45;100.00;102371.34;7395398;19;20439;-40
2023/09/15 08:11:59;;;;;;;9.50;4.00;;;;;;;13.61;100.00;102391.25;7372804;19;20436;-40
2023/09/15 08:14:29;;;;;;;4.83;2.30;;;;;;;13.67;100.00;102392.38;7394508;19;20407;-39
2023/09/15 08:17:01;;;;;;;4.77;2.20;;;;;;;13.79;100.00;102408.63;7371736;19;20423;-39
2023/09/15 08:19:31;;;;;;;4.70;2.33;;;;;;;13.94;100.00;102395.59;7395445;19;20778;-40
2023/09/15 08:22:01;;;;;;;5.80;3.07;;;;;;;14.07;100.00;102384.19;7373396;19;20423;-40
2023/09/15 08:24:31;;;;;;;8.13;2.50;;;;;;;14.12;100.00;102356.78;7394362;19;20412;-40
2023/09/15 08:27:00;;;;;;;6.90;2.40;;;;;;;14.14;100.00;102313.63;7372238;19;20423;-40
2023/09/15 08:29:30;;;;;;;5.60;2.83;;;;;;;14.27;100.00;102289.19;7394735;19;20462;-39
2023/09/15 08:32:03;;;;;;;4.63;2.20;;;;;;;14.35;100.00;102270.50;7372556;19;20523;-42
2023/09/15 08:34:33;;;;;;;5.90;2.97;;;;;;;14.47;100.00;102265.03;7394307;19;20411;-39
2023/09/15 08:37:03;;;;;;;5.60;2.63;;;;;;;14.55;100.00;102269.78;7371997;19;21272;-40
2023/09/15 08:39:32;;;;;;;5.00;2.10;;;;;;;14.67;100.00;102261.69;7394293;19;20439;-40
2023/09/15 08:42:05;;;;;;;4.60;1.90;;;;;;;14.72;100.00;102241.16;7371535;19;20799;-41
2023/09/15 08:44:35;;;;;;;5.43;2.80;;;;;;;14.86;100.00;102192.47;7393248;19;20838;-38
2023/09/15 08:47:08;;;;;;;6.33;2.97;;;;;;;15.03;100.00;102193.25;7369732;19;20411;-39
2023/09/15 08:49:38;;;;;;;8.90;2.20;;;;;;;15.08;100.00;102172.69;7395408;19;20472;-42
2023/09/15 08:52:08;;;;;;;5.40;2.60;;;;;;;15.12;100.00;102153.81;7372167;19;20427;-40
2023/09/15 08:54:39;;;;;;;6.40;2.57;;;;;;;15.29;100.00;102106.88;7394258;19;20407;-39
2023/09/15 08:57:08;;;;;;;6.20;2.97;;;;;;;15.37;100.00;102063.88;7372163;19;20419;-40
2023/09/15 08:59:39;;;;;;;4.67;2.50;;;;;;;15.42;100.00;102002.56;7393865;19;20451;-39
2023/09/15 09:02:15;;;;;;;4.80;1.87;;;;;;;15.52;100.00;101999.53;7371981;19;21002;-41
2023/09/15 09:04:45;;;;;;;7.93;2.03;;;;;;;15.68;100.00;102027.91;7394741;19;20433;-42
2023/09/15 09:07:15;;;;;;;5.47;1.83;;;;;;;15.74;100.00;102004.72;7372095;19;20423;-41
2023/09/15 09:09:45;;;;;;;6.60;2.20;;;;;;;15.79;100.00;101957.25;7395375;19;20998;-39
2023/09/15 09:12:15;;;;;;;6.13;2.20;;;;;;;15.91;100.00;101909.97;7371217;19;20439;-40
2023/09/15 09:14:45;;;;;;;11.20;2.00;;;;;;;16.05;100.00;101900.13;7393912;19;20474;-40
2023/09/15 09:17:18;;;;;;;5.43;2.07;;;;;;;16.20;100.00;101867.69;7370599;19;20491;-42
2023/09/15 09:19:49;;;;;;;7.83;2.27;;;;;;;16.28;100.00;101848.03;7394564;19;20446;-40
2023/09/15 09:22:19;;;;;;;4.70;2.10;;;;;;;16.37;100.00;101820.53;7372081;19;22092;-38
2023/09/15 09:24:55;;;;;;;8.13;2.70;;;;;;;16.46;100.00;101797.41;7395454;19;20411;-38
2023/09/15 09:27:33;;;;;;;4.93;2.37;;;;;;;16.47;100.00;101786.16;7370602;19;20427;-40
2023/09/15 09:30:03;;;;;;;5.20;2.17;;;;;;;16.63;100.00;101761.50;7395832;19;20446;-40
2023/09/15 09:32:39;;;;;;;7.90;2.03;;;;;;;16.74;100.00;101778.38;7370216;19;20851;-40
2023/09/15 09:35:09;;;;;;;8.90;2.23;;;;;;;16.90;100.00;101755.41;7396285;19;20411;-42
2023/09/15 09:37:39;;;;;;;9.63;2.57;;;;;;;17.02;100.00;101762.75;7370513;19;20416;-40
2023/09/15 09:40:09;;;;;;;7.20;2.70;;;;;;;17.05;100.00;101742.00;7395378;19;20835;-41
2023/09/15 09:42:39;;;;;;;8.43;2.40;;;;;;;17.04;100.00;101689.81;7370030;19;20435;-40
2023/09/15 09:45:10;;;;;;;9.10;2.40;;;;;;;17.06;100.00;101657.75;7395202;19;20411;-39
2023/09/15 09:47:42;;;;;;;7.93;2.20;;;;;;;17.18;100.00;101666.75;7369192;19;20498;-38
2023/09/15 09:50:13;;;;;;;9.67;2.23;;;;;;;17.35;100.00;101691.59;7395573;19;20451;-40
2023/09/15 09:52:43;;;;;;;5.30;1.83;;;;;;;17.36;100.00;101662.06;7370476;19;20530;-39
2023/09/15 09:55:13;;;;;;;5.73;1.83;;;;;;;17.37;100.00;101624.72;7395102;19;20418;-39
2023/09/15 09:57:44;;;;;;;5.10;1.93;;;;;;;17.48;100.00;101595.44;7371470;19;20434;-40
2023/09/15 10:00:18;;;;;;;6.80;2.40;;;;;;;17.44;100.00;101591.88;7395390;19;20443;-40
2023/09/15 10:02:52;;;;;;;6.47;2.17;;;;;;;17.62;100.00;101616.66;7370094;19;20443;-41
2023/09/15 10:05:22;;;;;;;5.57;2.43;;;;;;;17.76;100.00;101636.19;7395172;19;20483;-40
2023/09/15 10:07:52;;;;;;;4.77;2.33;;;;;;;17.65;100.00;101607.16;7370830;19;20423;-40
2023/09/15 10:10:25;;;;;;;6.57;2.53;;;;;;;17.67;100.00;101602.00;7394397;19;20798;-39
2023/09/15 10:12:54;;;;;;;5.50;2.10;;;;;;;17.90;100.00;101620.84;7369674;19;20454;-41
2023/09/15 10:15:24;;;;;;;4.80;2.33;;;;;;;18.06;100.00;101634.34;7392965;19;20407;-39
2023/09/15 10:17:58;;;;;;;4.93;2.30;;;;;;;18.17;100.00;101639.81;7370470;19;21313;-40
2023/09/15 10:20:28;;;;;;;5.40;2.30;;;;;;;18.28;100.00;101634.84;7393202;19;20435;-39
2023/09/15 10:22:58;;;;;;;5.60;2.53;;;;;;;18.39;100.00;101625.53;7370353;19;20818;-40
2023/09/15 10:25:27;;;;;;;5.97;2.47;;;;;;;18.49;100.00;101614.47;7393796;19;20471;-39
2023/09/15 10:27:57;;;;;;;7.47;2.57;;;;;;;18.54;100.00;101595.38;7369956;19;20514;-39
2023/09/15 10:30:28;;;;;;;7.40;3.37;;;;;;;18.68;100.00;101603.50;7393349;19;20464;-40
2023/09/15 10:33:03;;;;;;;9.20;2.80;;;;;;;18.72;100.00;101603.59;7369331;19;20450;-41
2023/09/15 10:35:34;;;;;;;5.10;2.27;;;;;;;18.86;100.00;101605.63;7393823;19;20432;-39
2023/09/15 10:38:05;;;;;;;6.73;2.30;;;;;;;18.84;100.00;101615.19;7370032;19;20491;-40
2023/09/15 10:40:48;;;;;;;8.67;3.43;;;;;;;18.92;100.00;101617.97;7392796;19;20471;-39
2023/09/15 10:43:19;;;;;;;5.00;2.30;;;;;;;18.99;100.00;101609.38;7372061;19;20448;-41
2023/09/15 10:45:57;;;;;;;7.47;2.23;;;;;;;19.01;100.00;101621.66;7393294;19;20482;-40
2023/09/15 10:48:39;;;;;;;8.60;2.50;;;;;;;19.11;100.00;101637.53;7369963;19;20454;-42
2023/09/15 10:51:09;;;;;;;8.70;2.80;;;;;;;19.08;100.00;101625.28;7369823;19;21023;-41
2023/09/15 10:53:46;;;;;;;8.23;1.90;;;;;;;19.16;100.00;101617.59;7390832;19;20407;-39
2023/09/15 10:56:17;;;;;;;7.50;3.17;;;;;;;18.89;100.00;101619.66;7370565;19;20419;-40
2023/09/15 10:58:47;;;;;;;6.90;2.60;;;;;;;18.82;100.00;101622.13;7390619;19;20966;-41
2023/09/15 11:01:18;;;;;;;5.57;2.30;;;;;;;18.87;100.00;101636.19;7369132;19;20395;-42
2023/09/15 11:03:51;;;;;;;12.50;3.40;;;;;;;18.82;100.00;101633.44;7388867;19;20491;-41
2023/09/15 11:06:21;;;;;;;5.70;2.23;;;;;;;19.01;100.00;101650.41;7368803;19;20434;-39
2023/09/15 11:08:51;;;;;;;8.70;4.63;;;;;;;19.16;100.00;101646.38;7394108;19;21105;-40
2023/09/15 11:11:20;;;;;;;5.67;2.47;;;;;;;19.22;100.00;101653.47;7372938;19;20975;-39
2023/09/15 11:13:50;;;;;;;7.40;2.57;;;;;;;18.98;100.00;101629.41;7396972;19;20778;-43
2023/09/15 11:16:19;;;;;;;5.27;2.40;;;;;;;19.11;100.00;101650.63;7374706;19;20782;-39
2023/09/15 11:18:52;;;;;;;6.53;2.40;;;;;;;19.41;100.00;101676.53;7397219;19;20790;-39
2023/09/15 11:21:21;;;;;;;8.53;2.70;;;;;;;19.24;100.00;101683.16;7375747;19;20447;-39
2023/09/15 11:23:52;;;;;;;10.33;3.40;;;;;;;19.03;100.00;101648.72;7397102;19;20423;-43
2023/09/15 11:26:22;;;;;;;12.07;3.40;;;;;;;19.13;100.00;101659.41;7375676;19;20490;-39
2023/09/15 11:28:59;;;;;;;6.27;2.73;;;;;;;19.34;100.00;101658.06;7397929;19;20482;-41
2023/09/15 11:31:33;;;;;;;9.87;2.90;;;;;;;19.43;100.00;101668.69;7373580;19;20411;-40
2023/09/15 11:34:07;;;;;;;11.77;3.30;;;;;;;19.51;100.00;101668.84;7396698;19;20427;-40
2023/09/15 11:36:38;;;;;;;7.30;2.40;;;;;;;19.63;100.00;101676.06;7375179;19;20430;-41